createdAt,value
2023-01-04T00:00:06.099Z,10.17
2023-01-04T00:01:28.183Z,9.60
2023-01-04T00:02:50.328Z,13.10
2023-01-04T00:04:12.738Z,8.77
2023-01-04T00:05:35.284Z,7.27
2023-01-04T00:06:57.589Z,12.90
2023-01-04T00:08:19.836Z,13.03
2023-01-04T00:09:41.885Z,11.50
2023-01-04T00:11:12.792Z,11.13
2023-01-04T00:12:36.687Z,12.27
2023-01-04T00:13:59.410Z,10.80
2023-01-04T00:15:21.464Z,9.20
2023-01-04T00:16:43.661Z,12.13
2023-01-04T00:18:05.809Z,14.00
2023-01-04T00:19:27.836Z,10.93
2023-01-04T00:20:49.862Z,11.73
2023-01-04T00:22:11.961Z,10.73
2023-01-04T00:23:34.055Z,8.50
2023-01-04T00:24:56.126Z,10.90
2023-01-04T00:26:23.415Z,12.63
2023-01-04T00:27:50.007Z,11.97
2023-01-04T00:29:13.138Z,8.63
2023-01-04T00:30:35.182Z,8.67
2023-01-04T00:31:57.283Z,9.77
2023-01-04T00:33:19.411Z,11.00
2023-01-04T00:34:41.517Z,7.47
2023-01-04T00:36:09.487Z,10.97
2023-01-04T00:37:31.630Z,10.50
2023-01-04T00:39:14.624Z,10.33
2023-01-04T00:40:36.670Z,11.70
2023-01-04T00:42:05.238Z,19.67
2023-01-04T00:43:28.090Z,13.33
2023-01-04T00:44:50.160Z,12.57
2023-01-04T00:46:12.266Z,9.50
2023-01-04T00:47:34.423Z,9.13
2023-01-04T00:49:00.205Z,10.03
2023-01-04T00:50:22.936Z,11.23
2023-01-04T00:51:45.020Z,10.23
2023-01-04T00:53:07.049Z,10.53
2023-01-04T00:54:29.261Z,11.13
2023-01-04T00:55:51.614Z,12.63
2023-01-04T00:57:13.658Z,14.03
2023-01-04T00:58:35.712Z,8.80
2023-01-04T00:59:57.800Z,9.07
2023-01-04T01:01:19.937Z,14.27
2023-01-04T01:02:42.170Z,10.53
2023-01-04T01:04:04.856Z,8.47
2023-01-04T01:05:27.204Z,10.47
2023-01-04T01:06:49.825Z,12.87
2023-01-04T01:08:26.876Z,11.30
2023-01-04T01:09:48.927Z,8.67
2023-01-04T01:11:11.623Z,11.77
2023-01-04T01:12:33.655Z,10.67
2023-01-04T01:13:55.792Z,10.00
2023-01-04T01:15:17.934Z,10.40
2023-01-04T01:18:22.058Z,10.30
2023-01-04T01:19:44.110Z,11.27
2023-01-04T01:21:07.882Z,13.60
2023-01-04T01:22:31.233Z,14.90
2023-01-04T01:23:54.227Z,35.60
2023-01-04T01:25:16.365Z,11.00
2023-01-04T01:26:38.458Z,12.50
2023-01-04T01:28:00.508Z,10.97
2023-01-04T01:29:22.832Z,14.00
2023-01-04T01:30:45.044Z,10.33
2023-01-04T01:32:07.204Z,12.90
2023-01-04T01:33:29.241Z,11.47
2023-01-04T01:34:51.286Z,17.33
2023-01-04T01:36:14.633Z,9.63
2023-01-04T01:37:36.685Z,10.70
2023-01-04T01:38:59.247Z,13.40
2023-01-04T01:40:21.386Z,9.20
2023-01-04T01:41:43.479Z,9.83
2023-01-04T01:43:10.075Z,13.43
2023-01-04T01:44:44.125Z,12.70
2023-01-04T01:46:06.279Z,10.87
2023-01-04T01:47:38.122Z,9.30
2023-01-04T01:49:13.288Z,10.80
2023-01-04T01:50:41.287Z,10.50
2023-01-04T01:52:07.673Z,8.40
2023-01-04T01:53:34.193Z,11.53
2023-01-04T01:54:59.903Z,9.90
2023-01-04T01:56:21.996Z,10.03
2023-01-04T01:57:45.915Z,12.83
2023-01-04T01:59:10.827Z,9.70
2023-01-04T02:00:33.087Z,12.30
2023-01-04T02:01:55.271Z,16.03
2023-01-04T02:03:20.886Z,9.63
2023-01-04T02:04:48.254Z,12.53
2023-01-04T02:06:22.522Z,10.43
2023-01-04T02:07:45.554Z,19.20
2023-01-04T02:09:08.293Z,8.30
2023-01-04T02:10:32.289Z,11.00
2023-01-04T02:11:54.361Z,14.03
2023-01-04T02:13:21.295Z,12.33
2023-01-04T02:14:46.294Z,13.43
2023-01-04T02:16:46.496Z,13.40
2023-01-04T02:18:15.132Z,12.43
2023-01-04T02:20:08.353Z,12.60
2023-01-04T02:22:00.187Z,11.67
2023-01-04T02:23:34.200Z,9.40
2023-01-04T02:24:59.037Z,13.03
2023-01-04T02:26:53.963Z,11.10
2023-01-04T02:28:51.171Z,14.40
2023-01-04T02:30:45.576Z,9.13
2023-01-04T02:32:27.212Z,10.27
2023-01-04T02:34:16.028Z,14.43
2023-01-04T02:36:07.726Z,12.30
2023-01-04T02:38:07.202Z,10.03
2023-01-04T02:39:53.110Z,13.40
2023-01-04T02:41:37.464Z,13.27
2023-01-04T02:43:39.445Z,11.20
2023-01-04T02:45:05.266Z,8.47
2023-01-04T02:46:33.717Z,10.70
2023-01-04T02:48:14.532Z,10.93
2023-01-04T02:49:59.187Z,13.23
2023-01-04T02:51:35.713Z,12.20
2023-01-04T02:53:08.658Z,11.70
2023-01-04T02:54:32.469Z,11.67
2023-01-04T02:56:20.095Z,10.17
2023-01-04T02:57:58.354Z,13.27
2023-01-04T02:59:32.434Z,15.03
2023-01-04T03:01:36.394Z,10.00
2023-01-04T03:03:43.183Z,11.53
2023-01-04T03:05:40.389Z,13.53
2023-01-04T03:07:14.200Z,10.50
2023-01-04T03:08:41.948Z,10.17
2023-01-04T03:10:39.169Z,10.47
2023-01-04T03:12:32.511Z,10.63
2023-01-04T03:14:02.171Z,14.00
2023-01-04T03:15:49.920Z,12.70
2023-01-04T03:17:14.716Z,10.30
2023-01-04T03:18:43.135Z,12.00
2023-01-04T03:20:08.991Z,10.83
2023-01-04T03:21:33.526Z,10.97
2023-01-04T03:23:30.805Z,11.67
2023-01-04T03:25:13.285Z,10.00
2023-01-04T03:27:03.659Z,10.20
2023-01-04T03:28:48.942Z,12.53
2023-01-04T03:30:32.614Z,11.33
2023-01-04T03:32:25.362Z,10.20
2023-01-04T03:34:06.398Z,16.00
2023-01-04T03:35:38.714Z,14.73
2023-01-04T03:37:00.724Z,12.63
2023-01-04T03:38:56.998Z,10.33
2023-01-04T03:40:45.543Z,12.10
2023-01-04T03:42:38.075Z,9.80
2023-01-04T03:44:53.687Z,11.50
2023-01-04T03:46:50.009Z,16.63
2023-01-04T03:48:36.983Z,13.23
2023-01-04T03:50:17.757Z,17.63
2023-01-04T03:51:40.923Z,10.10
2023-01-04T03:53:03.539Z,13.47
2023-01-04T03:54:36.176Z,15.33
2023-01-04T03:55:59.968Z,7.43
2023-01-04T03:57:23.276Z,10.50
2023-01-04T03:58:46.354Z,10.33
2023-01-04T04:00:16.492Z,12.07
2023-01-04T04:01:39.358Z,11.40
2023-01-04T04:03:12.164Z,12.40
2023-01-04T04:04:53.259Z,12.07
2023-01-04T04:06:33.892Z,12.33
2023-01-04T04:08:14.294Z,11.37
2023-01-04T04:09:36.370Z,10.00
2023-01-04T04:11:21.002Z,12.07
2023-01-04T04:12:43.067Z,17.77
2023-01-04T04:14:05.212Z,13.80
2023-01-04T04:15:27.360Z,12.60
2023-01-04T04:16:49.612Z,10.83
2023-01-04T04:18:11.714Z,10.60
2023-01-04T04:19:33.772Z,10.50
2023-01-04T04:20:58.863Z,9.93
2023-01-04T04:22:20.923Z,12.13
2023-01-04T04:23:43.872Z,9.90
2023-01-04T04:25:06.406Z,27.20
2023-01-04T04:26:28.444Z,11.40
2023-01-04T04:27:50.502Z,11.93
2023-01-04T04:29:12.550Z,10.17
2023-01-04T04:30:34.605Z,10.47
2023-01-04T04:31:56.714Z,10.70
2023-01-04T04:33:18.862Z,12.53
2023-01-04T04:34:41.037Z,16.30
2023-01-04T04:36:03.152Z,9.20
2023-01-04T04:37:27.068Z,10.80
2023-01-04T04:38:49.122Z,14.23
2023-01-04T04:40:31.903Z,11.80
2023-01-04T04:41:53.931Z,11.00
2023-01-04T04:43:15.980Z,10.53
2023-01-04T04:44:38.068Z,15.13
2023-01-04T04:46:00.838Z,12.73
2023-01-04T04:47:22.986Z,10.00
2023-01-04T04:48:45.062Z,15.33
2023-01-04T04:50:07.572Z,10.27
2023-01-04T04:51:29.666Z,12.13
2023-01-04T04:52:55.966Z,14.03
2023-01-04T04:54:20.690Z,10.63
2023-01-04T04:55:42.788Z,9.83
2023-01-04T04:57:05.084Z,9.07
2023-01-04T04:58:27.147Z,12.70
2023-01-04T04:59:49.218Z,10.87
2023-01-04T05:01:11.655Z,12.97
2023-01-04T05:02:33.878Z,10.10
2023-01-04T05:03:56.609Z,8.93
2023-01-04T05:05:18.689Z,9.30
2023-01-04T05:06:40.688Z,12.20
2023-01-04T05:08:02.777Z,12.10
2023-01-04T05:09:24.862Z,9.50
2023-01-04T05:10:46.943Z,9.83
2023-01-04T05:12:31.300Z,9.10
2023-01-04T05:13:53.398Z,6.27
2023-01-04T05:15:15.583Z,12.60
2023-01-04T05:16:37.846Z,10.47
2023-01-04T05:18:00.351Z,8.07
2023-01-04T05:19:22.398Z,9.90
2023-01-04T05:20:44.821Z,8.13
2023-01-04T05:22:06.860Z,13.33
2023-01-04T05:23:29.228Z,9.50
2023-01-04T05:24:51.287Z,10.07
2023-01-04T05:26:13.323Z,10.40
2023-01-04T05:27:35.930Z,8.00
2023-01-04T05:28:58.056Z,6.80
2023-01-04T05:30:39.113Z,8.13
2023-01-04T05:32:01.230Z,7.20
2023-01-04T05:33:28.401Z,8.17
2023-01-04T05:34:50.468Z,10.30
2023-01-04T05:36:12.561Z,6.83
2023-01-04T05:37:34.587Z,9.30
2023-01-04T05:38:56.662Z,7.80
2023-01-04T05:40:19.055Z,8.17
2023-01-04T05:41:59.521Z,6.40
2023-01-04T05:43:23.258Z,8.30
2023-01-04T05:44:45.347Z,11.90
2023-01-04T05:46:07.398Z,6.00
2023-01-04T05:47:29.881Z,7.30
2023-01-04T05:48:51.951Z,9.80
2023-01-04T05:50:14.046Z,11.27
2023-01-04T05:51:36.105Z,12.37
2023-01-04T05:52:58.149Z,5.90
2023-01-04T05:54:21.715Z,9.60
2023-01-04T05:55:45.014Z,7.57
2023-01-04T05:57:07.411Z,7.37
2023-01-04T05:58:29.634Z,7.73
2023-01-04T05:59:51.774Z,8.60
2023-01-04T06:01:13.860Z,7.53
2023-01-04T06:02:36.441Z,6.23
2023-01-04T06:03:58.766Z,12.53
2023-01-04T06:05:22.183Z,6.13
2023-01-04T06:06:44.239Z,11.80
2023-01-04T06:08:06.478Z,6.70
2023-01-04T06:09:28.629Z,7.67
2023-01-04T06:10:54.496Z,8.10
2023-01-04T06:12:16.562Z,10.33
2023-01-04T06:13:38.703Z,7.93
2023-01-04T06:15:01.080Z,5.13
2023-01-04T06:16:23.686Z,7.00
2023-01-04T06:17:45.810Z,9.13
2023-01-04T06:19:07.955Z,11.97
2023-01-04T06:20:30.030Z,6.20
2023-01-04T06:21:52.204Z,7.93
2023-01-04T06:23:14.478Z,7.30
2023-01-04T06:24:36.540Z,6.20
2023-01-04T06:25:58.620Z,9.97
2023-01-04T06:27:21.084Z,10.60
2023-01-04T06:28:43.201Z,9.10
2023-01-04T06:30:05.747Z,7.27
2023-01-04T06:31:27.965Z,7.40
2023-01-04T06:32:50.051Z,4.80
2023-01-04T06:34:13.543Z,6.70
2023-01-04T06:35:36.034Z,8.40
2023-01-04T06:36:58.596Z,12.53
2023-01-04T06:38:20.721Z,4.90
2023-01-04T06:39:43.923Z,6.63
2023-01-04T06:41:06.002Z,4.57
2023-01-04T06:42:46.137Z,4.20
2023-01-04T06:44:08.274Z,5.97
2023-01-04T06:45:30.397Z,6.60
2023-01-04T06:46:52.482Z,6.60
2023-01-04T06:48:17.818Z,7.00
2023-01-04T06:49:40.499Z,8.10
2023-01-04T06:51:02.562Z,4.37
2023-01-04T06:52:24.578Z,8.60
2023-01-04T06:53:46.866Z,5.50
2023-01-04T06:55:09.726Z,6.83
2023-01-04T06:56:32.297Z,8.40
2023-01-04T06:57:59.313Z,6.57
2023-01-04T06:59:21.771Z,6.17
2023-01-04T07:00:43.802Z,6.20
2023-01-04T07:02:06.067Z,4.83
2023-01-04T07:03:28.257Z,7.33
2023-01-04T07:04:50.369Z,8.00
2023-01-04T07:06:12.555Z,11.60
2023-01-04T07:07:35.507Z,8.63
2023-01-04T07:08:57.646Z,8.93
2023-01-04T07:10:19.839Z,10.87
2023-01-04T07:11:41.887Z,7.33
2023-01-04T07:13:04.205Z,4.40
2023-01-04T07:14:26.311Z,7.60
2023-01-04T07:15:48.429Z,7.70
2023-01-04T07:17:10.600Z,6.20
2023-01-04T07:18:32.647Z,8.30
2023-01-04T07:19:54.749Z,5.90
2023-01-04T07:21:16.769Z,9.30
2023-01-04T07:22:38.780Z,4.90
2023-01-04T07:24:00.818Z,5.37
2023-01-04T07:25:22.957Z,6.30
2023-01-04T07:26:45.010Z,8.00
2023-01-04T07:28:07.389Z,7.50
2023-01-04T07:29:29.488Z,6.30
2023-01-04T07:30:51.619Z,6.33
2023-01-04T07:32:14.227Z,5.67
2023-01-04T07:33:36.565Z,4.30
2023-01-04T07:34:58.659Z,8.53
2023-01-04T07:36:20.701Z,5.70
2023-01-04T07:37:43.461Z,4.10
2023-01-04T07:39:05.666Z,4.07
2023-01-04T07:40:28.019Z,4.90
2023-01-04T07:41:50.553Z,6.30
2023-01-04T07:43:12.596Z,5.40
2023-01-04T07:44:34.626Z,9.53
2023-01-04T07:45:56.723Z,8.93
2023-01-04T07:47:18.853Z,10.50
2023-01-04T07:48:40.959Z,6.57
2023-01-04T07:50:03.131Z,6.30
2023-01-04T07:51:25.351Z,8.83
2023-01-04T07:52:47.431Z,9.50
2023-01-04T07:54:10.666Z,5.00
2023-01-04T07:55:32.726Z,15.97
2023-01-04T07:56:54.801Z,9.87
2023-01-04T07:58:16.878Z,7.93
2023-01-04T07:59:38.969Z,4.27
2023-01-04T08:01:12.201Z,3.67
2023-01-04T08:02:34.491Z,11.70
2023-01-04T08:03:57.004Z,8.13
2023-01-04T08:05:19.173Z,7.03
2023-01-04T08:06:43.007Z,4.33
2023-01-04T08:08:05.360Z,6.80
2023-01-04T08:09:27.409Z,7.27
2023-01-04T08:10:49.482Z,3.50
2023-01-04T08:12:11.564Z,11.13
2023-01-04T08:13:33.775Z,6.70
2023-01-04T08:14:55.812Z,6.87
2023-01-04T08:16:22.671Z,5.00
2023-01-04T08:17:44.793Z,6.47
2023-01-04T08:19:11.640Z,4.60
2023-01-04T08:20:33.740Z,7.90
2023-01-04T08:21:55.824Z,5.97
2023-01-04T08:23:17.891Z,5.40
2023-01-04T08:24:39.983Z,8.00
2023-01-04T08:26:11.023Z,5.20
2023-01-04T08:27:33.395Z,5.90
2023-01-04T08:28:56.559Z,4.87
2023-01-04T08:30:18.832Z,9.90
2023-01-04T08:31:41.323Z,8.87
2023-01-04T08:33:03.469Z,4.47
2023-01-04T08:34:25.574Z,4.80
2023-01-04T08:35:47.633Z,7.70
2023-01-04T08:37:09.768Z,6.53
2023-01-04T08:38:59.337Z,8.53
2023-01-04T08:40:16.094Z,4.00
2023-01-04T08:43:32.716Z,10.33
2023-01-04T08:44:59.273Z,4.87
2023-01-04T08:46:22.313Z,5.73
2023-01-04T08:47:44.449Z,4.90
2023-01-04T08:49:06.573Z,8.07
2023-01-04T08:50:28.639Z,5.43
2023-01-04T08:51:50.806Z,7.33
2023-01-04T08:53:12.929Z,4.00
2023-01-04T08:54:34.989Z,7.57
2023-01-04T08:55:58.654Z,5.67
2023-01-04T08:57:20.763Z,4.27
2023-01-04T08:58:42.816Z,8.23
2023-01-04T09:00:06.622Z,8.50
2023-01-04T09:01:28.947Z,3.53
2023-01-04T09:02:51.170Z,2.73
2023-01-04T09:04:13.659Z,4.20
2023-01-04T09:05:35.760Z,3.83
2023-01-04T09:06:58.090Z,2.00
2023-01-04T09:08:20.323Z,4.50
2023-01-04T09:09:42.661Z,2.07
2023-01-04T09:11:23.314Z,7.53
2023-01-04T09:12:47.665Z,2.07
2023-01-04T09:14:10.508Z,3.40
2023-01-04T09:15:33.821Z,2.27
2023-01-04T09:16:55.913Z,3.17
2023-01-04T09:18:33.553Z,4.27
2023-01-04T09:19:55.712Z,2.37
2023-01-04T09:21:21.020Z,4.50
2023-01-04T09:22:43.083Z,2.03
2023-01-04T09:24:05.279Z,3.00
2023-01-04T09:25:27.322Z,2.10
2023-01-04T09:26:49.592Z,2.40
2023-01-04T09:28:11.751Z,1.70
2023-01-04T09:29:33.831Z,2.43
2023-01-04T09:30:56.007Z,2.40
2023-01-04T09:32:18.115Z,2.73
2023-01-04T09:34:12.856Z,3.70
2023-01-04T09:35:22.704Z,2.90
2023-01-04T09:36:45.883Z,1.80
2023-01-04T09:38:08.021Z,3.40
2023-01-04T09:39:30.601Z,2.03
2023-01-04T09:40:58.842Z,1.73
2023-01-04T09:42:35.065Z,2.40
2023-01-04T09:44:04.789Z,1.70
2023-01-04T09:45:28.583Z,2.53
2023-01-04T09:46:55.501Z,2.20
2023-01-04T09:48:25.524Z,1.83
2023-01-04T09:50:10.575Z,5.13
2023-01-04T09:51:36.211Z,2.10
2023-01-04T09:52:58.194Z,1.50
2023-01-04T09:54:23.199Z,2.73
2023-01-04T09:55:50.388Z,1.77
2023-01-04T09:57:25.999Z,4.50
2023-01-04T09:58:48.940Z,3.67
2023-01-04T10:00:20.040Z,1.27
2023-01-04T10:02:05.377Z,1.87
2023-01-04T10:03:36.606Z,2.60
2023-01-04T10:05:02.010Z,1.53
2023-01-04T10:06:24.084Z,2.27
2023-01-04T10:07:46.164Z,2.20
2023-01-04T10:09:13.668Z,2.30
2023-01-04T10:11:04.925Z,1.90
2023-01-04T10:12:41.822Z,3.80
2023-01-04T10:14:11.840Z,1.63
2023-01-04T10:15:36.733Z,0.97
2023-01-04T10:17:44.355Z,1.03
2023-01-04T10:20:59.919Z,1.10
2023-01-04T10:23:00.309Z,1.03
2023-01-04T10:24:38.197Z,1.10
2023-01-04T10:26:15.860Z,1.20
2023-01-04T10:27:51.155Z,2.03
2023-01-04T10:29:16.115Z,1.00
2023-01-04T10:30:43.647Z,3.13
2023-01-04T10:32:34.697Z,2.20
2023-01-04T10:34:03.143Z,1.20
2023-01-04T10:35:27.314Z,0.93
2023-01-04T10:36:51.275Z,0.90
2023-01-04T10:38:18.021Z,0.80
2023-01-04T10:39:40.928Z,1.73
2023-01-04T10:41:09.948Z,0.70
2023-01-04T10:42:38.185Z,1.20
2023-01-04T10:44:15.546Z,1.40
2023-01-04T10:45:51.335Z,0.70
2023-01-04T10:47:45.835Z,0.97
2023-01-04T10:49:23.185Z,1.50
2023-01-04T10:51:05.225Z,0.73
2023-01-04T10:53:03.239Z,1.07
2023-01-04T10:54:29.379Z,1.50
2023-01-04T10:56:23.673Z,1.17
2023-01-04T10:57:55.550Z,0.80
2023-01-04T10:59:46.726Z,1.00
2023-01-04T11:01:19.334Z,0.90
2023-01-04T11:02:47.859Z,0.87
2023-01-04T11:04:29.053Z,1.00
2023-01-04T11:05:58.004Z,2.50
2023-01-04T11:07:26.842Z,1.27
2023-01-04T11:08:59.370Z,1.53
2023-01-04T11:10:30.091Z,1.30
2023-01-04T11:11:56.564Z,2.20
2023-01-04T11:13:18.778Z,1.47
2023-01-04T11:14:40.953Z,1.30
2023-01-04T11:16:05.451Z,1.20
2023-01-04T11:17:28.550Z,1.27
2023-01-04T11:18:51.366Z,1.20
2023-01-04T11:20:13.732Z,1.30
2023-01-04T11:21:43.287Z,4.33
2023-01-04T11:23:12.633Z,1.00
2023-01-04T11:24:35.944Z,1.10
2023-01-04T11:26:04.390Z,1.47
2023-01-04T11:27:31.250Z,1.33
2023-01-04T11:29:02.516Z,1.37
2023-01-04T11:30:28.721Z,1.70
2023-01-04T11:32:02.442Z,1.50
2023-01-04T11:33:25.045Z,1.00
2023-01-04T11:34:50.782Z,0.80
2023-01-04T11:36:31.798Z,0.83
2023-01-04T11:38:17.911Z,1.43
2023-01-04T11:39:40.040Z,1.10
2023-01-04T11:41:07.540Z,2.60
2023-01-04T11:42:29.809Z,1.10
2023-01-04T11:44:06.183Z,1.10
2023-01-04T11:45:28.817Z,1.53
2023-01-04T11:47:18.017Z,1.37
2023-01-04T11:48:41.682Z,1.30
2023-01-04T11:50:03.901Z,1.30
2023-01-04T11:51:29.054Z,2.63
2023-01-04T11:52:51.144Z,3.37
2023-01-04T11:54:15.765Z,1.00
2023-01-04T11:55:37.835Z,1.23
2023-01-04T11:57:11.619Z,1.30
2023-01-04T11:58:34.642Z,1.60
2023-01-04T12:00:16.424Z,2.33
2023-01-04T12:01:48.138Z,1.30
2023-01-04T12:03:15.237Z,1.30
2023-01-04T12:04:37.378Z,2.30
2023-01-04T12:05:59.432Z,1.00
2023-01-04T12:07:30.413Z,1.40
2023-01-04T12:08:52.559Z,1.30
2023-01-04T12:10:26.574Z,2.60
2023-01-04T12:11:56.636Z,1.37
2023-01-04T12:13:18.758Z,1.30
2023-01-04T12:14:48.617Z,2.70
2023-01-04T12:16:38.504Z,1.87
2023-01-04T12:18:07.700Z,1.30
2023-01-04T12:19:30.460Z,1.10
2023-01-04T12:20:52.651Z,1.10
2023-01-04T12:22:26.295Z,1.57
2023-01-04T12:23:49.461Z,1.70
2023-01-04T12:25:42.592Z,1.10
2023-01-04T12:27:12.537Z,1.10
2023-01-04T12:28:40.365Z,1.77
2023-01-04T12:30:07.939Z,1.07
2023-01-04T12:31:31.970Z,1.10
2023-01-04T12:32:53.992Z,1.00
2023-01-04T12:34:16.802Z,0.90
2023-01-04T12:35:59.310Z,1.00
2023-01-04T12:37:49.723Z,1.83
2023-01-04T12:39:14.949Z,0.90
2023-01-04T12:40:46.613Z,1.30
2023-01-04T12:42:15.810Z,1.60
2023-01-04T12:43:44.686Z,1.00
2023-01-04T12:45:14.036Z,1.07
2023-01-04T12:47:01.363Z,2.30
2023-01-04T12:48:47.976Z,1.80
2023-01-04T12:50:15.036Z,1.00
2023-01-04T12:51:42.702Z,1.10
2023-01-04T12:53:49.907Z,0.80
2023-01-04T12:55:33.143Z,1.13
2023-01-04T12:57:23.436Z,1.63
2023-01-04T12:59:25.182Z,1.23
2023-01-04T13:00:50.996Z,1.00
2023-01-04T13:02:20.937Z,0.70
2023-01-04T13:03:48.614Z,1.00
2023-01-04T13:07:08.486Z,1.17
2023-01-04T13:08:35.726Z,4.80
2023-01-04T13:10:13.193Z,0.83
2023-01-04T13:11:48.217Z,1.40
2023-01-04T13:13:29.153Z,1.20
2023-01-04T13:14:57.683Z,0.93
2023-01-04T13:16:27.832Z,1.43
2023-01-04T13:17:50.750Z,0.80
2023-01-04T13:19:26.509Z,1.33
2023-01-04T13:20:48.694Z,1.10
2023-01-04T13:22:28.585Z,1.03
2023-01-04T13:24:15.475Z,1.00
2023-01-04T13:25:37.638Z,1.00
2023-01-04T13:27:07.919Z,1.10
2023-01-04T13:28:30.013Z,1.27
2023-01-04T13:29:53.044Z,2.03
2023-01-04T13:31:15.191Z,1.20
2023-01-04T13:32:59.505Z,1.00
2023-01-04T13:34:20.626Z,1.00
2023-01-04T13:35:43.111Z,0.80
2023-01-04T13:37:17.261Z,1.03
2023-01-04T13:38:40.646Z,1.10
2023-01-04T13:40:17.203Z,1.03
2023-01-04T13:41:43.810Z,4.10
2023-01-04T13:43:11.723Z,0.83
2023-01-04T13:45:18.980Z,1.00
2023-01-04T13:46:43.470Z,0.87
2023-01-04T13:48:10.807Z,0.80
2023-01-04T13:49:33.088Z,1.10
2023-01-04T13:51:01.361Z,1.30
2023-01-04T13:52:52.215Z,0.93
2023-01-04T13:54:23.437Z,1.87
2023-01-04T13:55:51.375Z,1.37
2023-01-04T13:57:24.468Z,0.97
2023-01-04T13:58:46.561Z,0.90
2023-01-04T14:00:14.243Z,2.00
2023-01-04T14:01:41.276Z,1.30
2023-01-04T14:03:15.479Z,1.40
2023-01-04T14:04:37.605Z,0.90
2023-01-04T14:06:52.119Z,0.80
2023-01-04T14:08:20.864Z,1.60
2023-01-04T14:09:47.426Z,1.00
2023-01-04T14:11:40.255Z,1.97
2023-01-04T14:13:03.807Z,1.93
2023-01-04T14:14:35.566Z,0.80
2023-01-04T14:16:15.116Z,1.20
2023-01-04T14:17:38.054Z,1.90
2023-01-04T14:19:40.883Z,3.43
2023-01-04T14:21:03.045Z,1.30
2023-01-04T14:22:37.786Z,1.00
2023-01-04T14:23:59.924Z,1.40
2023-01-04T14:25:33.887Z,1.10
2023-01-04T14:26:55.937Z,1.00
2023-01-04T14:28:32.278Z,0.83
2023-01-04T14:29:54.440Z,0.70
2023-01-04T14:31:21.060Z,1.00
2023-01-04T14:33:00.231Z,1.97
2023-01-04T14:34:22.458Z,3.30
2023-01-04T14:35:48.892Z,1.50
2023-01-04T14:37:12.517Z,1.00
2023-01-04T14:38:48.548Z,3.33
2023-01-04T14:40:16.283Z,0.93
2023-01-04T14:41:40.093Z,0.80
2023-01-04T14:43:02.158Z,1.37
2023-01-04T14:44:28.382Z,0.93
2023-01-04T14:45:50.589Z,1.53
2023-01-04T14:47:13.812Z,1.70
2023-01-04T14:48:35.875Z,1.10
2023-01-04T14:49:58.198Z,1.23
2023-01-04T14:51:24.096Z,0.87
2023-01-04T14:52:53.760Z,0.80
2023-01-04T14:54:23.932Z,0.93
2023-01-04T14:55:46.687Z,1.53
2023-01-04T14:57:09.875Z,1.83
2023-01-04T14:58:31.918Z,1.10
2023-01-04T14:59:53.988Z,2.80
2023-01-04T15:01:16.177Z,1.00
2023-01-04T15:02:38.703Z,1.50
2023-01-04T15:04:01.012Z,2.53
2023-01-04T15:05:23.135Z,1.27
2023-01-04T15:06:55.086Z,1.30
2023-01-04T15:08:17.217Z,1.20
2023-01-04T15:09:39.380Z,1.30
2023-01-04T15:11:02.328Z,0.80
2023-01-04T15:12:24.416Z,1.30
2023-01-04T15:13:46.522Z,1.30
2023-01-04T15:15:09.360Z,1.60
2023-01-04T15:16:31.499Z,1.40
2023-01-04T15:17:53.775Z,1.30
2023-01-04T15:19:15.938Z,2.03
2023-01-04T15:20:41.566Z,1.47
2023-01-04T15:22:03.633Z,1.97
2023-01-04T15:23:25.746Z,1.67
2023-01-04T15:24:47.773Z,1.40
2023-01-04T15:26:11.482Z,1.60
2023-01-04T15:27:39.965Z,2.57
2023-01-04T15:29:06.590Z,1.27
2023-01-04T15:30:28.713Z,2.40
2023-01-04T15:31:50.878Z,1.23
2023-01-04T15:33:13.095Z,1.20
2023-01-04T15:34:35.207Z,2.80
2023-01-04T15:36:02.603Z,1.40
2023-01-04T15:37:24.766Z,1.37
2023-01-04T15:38:47.279Z,2.13
2023-01-04T15:40:10.358Z,2.07
2023-01-04T15:41:51.199Z,2.60
2023-01-04T15:43:13.265Z,1.80
2023-01-04T15:44:35.301Z,1.90
2023-01-04T15:46:02.080Z,3.10
2023-01-04T15:47:24.148Z,1.90
2023-01-04T15:48:46.377Z,2.43
2023-01-04T15:50:08.936Z,1.73
2023-01-04T15:51:31.105Z,1.50
2023-01-04T15:52:53.217Z,5.00
2023-01-04T15:54:17.111Z,1.40
2023-01-04T15:55:39.349Z,1.13
2023-01-04T15:57:01.411Z,1.67
2023-01-04T15:58:23.517Z,1.10
2023-01-04T15:59:47.328Z,3.30
2023-01-04T16:01:14.939Z,1.63
2023-01-04T16:02:37.089Z,1.70
2023-01-04T16:03:59.288Z,2.20
2023-01-04T16:05:21.443Z,1.30
2023-01-04T16:06:43.554Z,1.40
2023-01-04T16:08:05.709Z,2.20
2023-01-04T16:09:27.809Z,3.90
2023-01-04T16:10:49.972Z,1.97
2023-01-04T16:12:30.531Z,1.67
2023-01-04T16:13:52.981Z,1.30
2023-01-04T16:15:20.863Z,1.80
2023-01-04T16:16:43.030Z,1.57
2023-01-04T16:18:05.238Z,2.17
2023-01-04T16:19:27.678Z,2.60
2023-01-04T16:20:49.818Z,2.33
2023-01-04T16:22:11.904Z,2.90
2023-01-04T16:23:34.540Z,2.57
2023-01-04T16:25:12.804Z,2.10
2023-01-04T16:26:35.076Z,5.00
2023-01-04T16:27:57.204Z,1.40
2023-01-04T16:29:20.832Z,2.00
2023-01-04T16:30:42.915Z,2.90
2023-01-04T16:32:05.309Z,3.00
2023-01-04T16:33:28.012Z,1.60
2023-01-04T16:34:51.121Z,3.40
2023-01-04T16:36:15.072Z,2.27
2023-01-04T16:37:37.251Z,2.60
2023-01-04T16:39:01.348Z,2.67
2023-01-04T16:40:24.477Z,1.87
2023-01-04T16:41:46.704Z,1.80
2023-01-04T16:43:08.851Z,1.70
2023-01-04T16:44:30.930Z,5.27
2023-01-04T16:46:11.021Z,1.80
2023-01-04T16:47:40.246Z,2.57
2023-01-04T16:49:09.598Z,2.60
2023-01-04T16:50:31.660Z,2.40
2023-01-04T16:51:53.687Z,4.70
2023-01-04T16:53:15.834Z,1.90
2023-01-04T16:54:37.939Z,2.40
2023-01-04T16:56:05.489Z,4.10
2023-01-04T16:57:27.559Z,3.13
2023-01-04T16:58:50.429Z,1.70
2023-01-04T17:00:13.085Z,2.40
2023-01-04T17:01:39.433Z,2.33
2023-01-04T17:03:07.877Z,2.43
2023-01-04T17:04:30.006Z,2.57
2023-01-04T17:05:52.273Z,2.80
2023-01-04T17:07:14.327Z,1.83
2023-01-04T17:08:36.921Z,1.43
2023-01-04T17:10:00.223Z,1.60
2023-01-04T17:12:11.597Z,1.87
2023-01-04T17:13:07.402Z,2.90
2023-01-04T17:14:30.877Z,2.80
2023-01-04T17:15:53.059Z,3.40
2023-01-04T17:17:15.216Z,1.63
2023-01-04T17:18:38.395Z,2.33
2023-01-04T17:20:00.537Z,4.10
2023-01-04T17:21:33.815Z,1.70
2023-01-04T17:22:56.996Z,1.73
2023-01-04T17:24:19.585Z,1.83
2023-01-04T17:25:41.671Z,2.07
2023-01-04T17:27:03.831Z,2.07
2023-01-04T17:28:25.895Z,1.67
2023-01-04T17:29:48.015Z,1.50
2023-01-04T17:31:19.961Z,2.27
2023-01-04T17:32:42.034Z,2.27
2023-01-04T17:34:04.158Z,3.90
2023-01-04T17:35:26.263Z,3.07
2023-01-04T17:36:48.361Z,2.47
2023-01-04T17:38:10.553Z,4.70
2023-01-04T17:39:32.831Z,2.50
2023-01-04T17:40:54.946Z,3.67
2023-01-04T17:42:17.148Z,2.20
2023-01-04T17:43:40.434Z,1.80
2023-01-04T17:45:02.488Z,2.50
2023-01-04T17:46:25.336Z,2.83
2023-01-04T17:47:47.634Z,2.60
2023-01-04T17:49:31.270Z,3.73
2023-01-04T17:50:53.713Z,2.77
2023-01-04T17:52:22.187Z,5.13
2023-01-04T17:53:53.647Z,3.20
2023-01-04T17:55:15.843Z,2.80
2023-01-04T17:56:37.988Z,2.27
2023-01-04T17:58:01.488Z,7.13
2023-01-04T17:59:25.481Z,2.00
2023-01-04T18:00:47.547Z,5.87
2023-01-04T18:02:10.793Z,4.70
2023-01-04T18:03:32.910Z,3.07
2023-01-04T18:04:54.989Z,2.10
2023-01-04T18:06:26.390Z,4.50
2023-01-04T18:07:48.499Z,3.00
2023-01-04T18:09:11.740Z,3.17
2023-01-04T18:10:48.790Z,2.90
2023-01-04T18:12:17.611Z,6.90
2023-01-04T18:13:43.104Z,2.90
2023-01-04T18:15:06.439Z,4.40
2023-01-04T18:16:29.659Z,2.17
2023-01-04T18:17:51.704Z,12.77
2023-01-04T18:19:13.794Z,4.07
2023-01-04T18:20:35.921Z,1.93
2023-01-04T18:21:58.641Z,2.53
2023-01-04T18:23:25.672Z,3.10
2023-01-04T18:24:47.955Z,1.67
2023-01-04T18:26:10.865Z,5.07
2023-01-04T18:27:32.894Z,4.07
2023-01-04T18:28:54.948Z,6.80
2023-01-04T18:30:17.168Z,9.67
2023-01-04T18:31:39.343Z,5.70
2023-01-04T18:33:01.460Z,5.80
2023-01-04T18:34:26.386Z,4.50
2023-01-04T18:35:48.590Z,4.47
2023-01-04T18:37:10.779Z,3.27
2023-01-04T18:38:33.608Z,8.37
2023-01-04T18:39:55.700Z,11.17
2023-01-04T18:41:18.079Z,5.73
2023-01-04T18:42:40.237Z,7.93
2023-01-04T18:44:31.000Z,9.57
2023-01-04T18:45:44.620Z,9.33
2023-01-04T18:47:06.850Z,10.00
2023-01-04T18:48:28.935Z,5.93
2023-01-04T18:49:51.370Z,4.73
2023-01-04T18:51:15.650Z,16.20
2023-01-04T18:52:37.942Z,9.07
2023-01-04T18:54:00.261Z,8.53
2023-01-04T18:55:22.584Z,5.87
2023-01-04T18:56:44.886Z,5.70
2023-01-04T18:58:07.076Z,7.67
2023-01-04T18:59:30.279Z,7.50
2023-01-04T19:01:00.752Z,11.60
2023-01-04T19:02:23.131Z,7.83
2023-01-04T19:03:47.422Z,7.07
2023-01-04T19:05:11.201Z,6.43
2023-01-04T19:06:33.408Z,13.33
2023-01-04T19:07:55.818Z,7.13
2023-01-04T19:09:18.122Z,4.30
2023-01-04T19:10:40.241Z,9.07
2023-01-04T19:12:02.375Z,8.37
2023-01-04T19:13:24.690Z,7.17
2023-01-04T19:14:47.003Z,11.13
2023-01-04T19:16:10.774Z,7.10
2023-01-04T19:17:32.886Z,5.60